Terminal Aerodrome Forecast
Issued by NWS Jacksonville, FL

Home | Current Version | Previous Version | Text Only | Print | Product List | Glossary On
Versions: 1 2 3 4 5 6 7 8 9 10 11 12 13 14 15 16 17 18 19 20 21 22 23 24 25 26 27 28 29 30 31 32 33 34 35 36 37 38 39 40 41
000
FTUS42 KJAX 281613 AAB
TAFGNV
TAF AMD
KGNV 281613Z 2816/2912 09006KT P6SM BKN015 OVC025
     FM290000 09006KT P6SM VCSH OVC015
     FM290500 VRB05KT 4SM BR VCTS OVC007CB
     FM291100 VRB04KT 3SM BR VCSH OVC003=

USA.gov is the U.S. government's official web portal to all federal, state and local government web resources and services.